createdAt,value
2023-05-15T00:01:24.570Z,6.15
2023-05-15T00:03:52.113Z,5.93
2023-05-15T00:06:19.932Z,6.10
2023-05-15T00:08:47.018Z,6.28
2023-05-15T00:11:14.064Z,6.10
2023-05-15T00:13:41.088Z,6.75
2023-05-15T00:16:11.211Z,6.97
2023-05-15T00:18:38.341Z,6.80
2023-05-15T00:21:05.403Z,6.93
2023-05-15T00:23:32.444Z,7.20
2023-05-15T00:25:59.538Z,7.18
2023-05-15T00:28:26.577Z,7.07
2023-05-15T00:30:53.858Z,7.68
2023-05-15T00:33:20.932Z,7.60
2023-05-15T00:35:48.016Z,6.35
2023-05-15T00:38:15.118Z,8.20
2023-05-15T00:40:42.796Z,7.28
2023-05-15T00:43:10.646Z,7.78
2023-05-15T00:45:40.493Z,7.43
2023-05-15T00:48:08.410Z,7.60
2023-05-15T00:50:35.969Z,8.30
2023-05-15T00:53:04.660Z,7.22
2023-05-15T00:55:32.059Z,7.97
2023-05-15T00:57:59.850Z,7.25
2023-05-15T01:00:27.053Z,8.25
2023-05-15T01:02:54.790Z,8.63
2023-05-15T01:05:22.027Z,9.25
2023-05-15T01:07:52.818Z,8.77
2023-05-15T01:10:20.338Z,8.93
2023-05-15T01:12:48.147Z,9.07
2023-05-15T01:15:15.221Z,9.00
2023-05-15T01:17:42.329Z,9.95
2023-05-15T01:20:11.585Z,10.00
2023-05-15T01:22:53.115Z,9.45
2023-05-15T01:25:23.454Z,10.05
2023-05-15T01:27:55.314Z,10.00
2023-05-15T01:30:25.428Z,9.98
2023-05-15T01:32:52.444Z,9.75
2023-05-15T01:35:26.320Z,9.82
2023-05-15T01:37:58.840Z,9.90
2023-05-15T01:40:26.836Z,9.20
2023-05-15T01:42:59.035Z,10.43
2023-05-15T01:45:27.284Z,10.20
2023-05-15T01:47:55.080Z,10.68
2023-05-15T01:50:22.454Z,10.95
2023-05-15T01:52:51.370Z,10.15
2023-05-15T01:55:20.613Z,10.82
2023-05-15T01:57:48.129Z,11.00
2023-05-15T02:00:15.661Z,11.35
2023-05-15T02:02:43.197Z,10.52
2023-05-15T02:05:10.983Z,10.25
2023-05-15T02:07:38.579Z,9.68
2023-05-15T02:10:06.408Z,10.60
2023-05-15T02:12:34.110Z,10.60
2023-05-15T02:15:02.860Z,10.77
2023-05-15T02:17:30.124Z,12.02
2023-05-15T02:19:57.225Z,11.90
2023-05-15T02:22:24.228Z,11.82
2023-05-15T02:24:51.236Z,10.75
2023-05-15T02:27:21.510Z,10.70
2023-05-15T02:29:54.089Z,11.93
2023-05-15T02:32:53.658Z,11.68
2023-05-15T02:35:59.174Z,11.45
2023-05-15T02:38:30.910Z,11.80
2023-05-15T02:40:58.607Z,10.98
2023-05-15T02:43:26.401Z,11.82
2023-05-15T02:45:53.705Z,11.48
2023-05-15T02:48:20.923Z,12.70
2023-05-15T02:50:48.038Z,12.77
2023-05-15T02:53:16.045Z,11.82
2023-05-15T02:55:43.135Z,12.23
2023-05-15T02:58:10.198Z,12.82
2023-05-15T03:00:37.316Z,12.93
2023-05-15T03:03:04.498Z,11.68
2023-05-15T03:05:31.677Z,11.38
2023-05-15T03:07:59.019Z,10.90
2023-05-15T03:10:26.158Z,11.13
2023-05-15T03:12:53.280Z,10.98
2023-05-15T03:15:21.159Z,11.25
2023-05-15T03:17:48.273Z,10.52
2023-05-15T03:20:15.363Z,10.52
2023-05-15T03:22:42.589Z,10.80
2023-05-15T03:25:12.446Z,10.35
2023-05-15T03:27:39.582Z,9.15
2023-05-15T03:30:06.938Z,11.00
2023-05-15T03:32:33.981Z,10.32
2023-05-15T03:35:01.246Z,10.38
2023-05-15T03:37:28.329Z,10.43
2023-05-15T03:39:55.392Z,9.70
2023-05-15T03:42:23.663Z,10.05
2023-05-15T03:44:50.743Z,9.82
2023-05-15T03:47:17.921Z,9.75
2023-05-15T03:49:44.952Z,10.45
2023-05-15T03:52:12.088Z,9.55
2023-05-15T03:54:39.274Z,9.35
2023-05-15T03:57:06.751Z,9.20
2023-05-15T03:59:33.947Z,9.65
2023-05-15T04:02:04.291Z,10.23
2023-05-15T04:04:32.589Z,9.85
2023-05-15T04:06:59.890Z,10.27
2023-05-15T04:09:26.903Z,10.52
2023-05-15T04:11:53.943Z,10.52
2023-05-15T04:14:21.064Z,10.75
2023-05-15T04:16:48.254Z,11.50
2023-05-15T04:19:15.531Z,10.07
2023-05-15T04:21:42.610Z,10.88
2023-05-15T04:24:09.854Z,11.85
2023-05-15T04:26:36.987Z,10.63
2023-05-15T04:29:04.900Z,11.65
2023-05-15T04:31:32.490Z,11.13
2023-05-15T04:33:59.668Z,11.05
2023-05-15T04:36:26.688Z,10.68
2023-05-15T04:38:53.792Z,11.30
2023-05-15T04:41:20.849Z,11.18
2023-05-15T04:43:47.910Z,9.68
2023-05-15T04:46:14.963Z,9.73
2023-05-15T04:48:42.090Z,9.75
2023-05-15T04:51:09.151Z,9.82
2023-05-15T04:53:36.305Z,10.40
2023-05-15T04:56:03.389Z,11.18
2023-05-15T04:58:30.451Z,10.23
2023-05-15T05:00:57.492Z,9.77
2023-05-15T05:03:24.512Z,10.52
2023-05-15T05:05:51.514Z,11.38
2023-05-15T05:08:18.120Z,11.30
2023-05-15T05:10:44.776Z,10.13
2023-05-15T05:13:11.403Z,10.20
2023-05-15T05:15:38.096Z,10.70
2023-05-15T05:18:05.936Z,9.45
2023-05-15T05:20:33.028Z,9.65
2023-05-15T05:23:00.215Z,10.35
2023-05-15T05:25:27.472Z,10.05
2023-05-15T05:27:54.598Z,9.63
2023-05-15T05:30:22.396Z,9.85
2023-05-15T05:32:49.557Z,9.50
2023-05-15T05:35:16.736Z,9.48
2023-05-15T05:37:43.877Z,9.55
2023-05-15T05:40:11.167Z,9.75
2023-05-15T05:42:38.301Z,9.68
2023-05-15T05:45:06.294Z,9.18
2023-05-15T05:47:33.420Z,9.38
2023-05-15T05:50:00.470Z,9.00
2023-05-15T05:52:28.062Z,9.70
2023-05-15T05:54:54.666Z,9.65
2023-05-15T05:57:21.361Z,10.20
2023-05-15T05:59:49.691Z,10.40
2023-05-15T06:02:16.668Z,9.05
2023-05-15T06:04:43.413Z,9.57
2023-05-15T06:07:10.438Z,9.00
2023-05-15T06:09:37.078Z,9.75
2023-05-15T06:12:08.139Z,9.77
2023-05-15T06:14:35.953Z,9.10
2023-05-15T06:17:03.113Z,8.90
2023-05-15T06:19:30.453Z,7.53
2023-05-15T06:21:57.542Z,9.68
2023-05-15T06:24:24.608Z,8.88
2023-05-15T06:26:52.463Z,8.25
2023-05-15T06:29:19.677Z,9.50
2023-05-15T06:31:46.726Z,9.20
2023-05-15T06:34:13.851Z,9.02
2023-05-15T06:36:41.164Z,9.00
2023-05-15T06:39:10.748Z,8.88
2023-05-15T06:41:38.200Z,8.45
2023-05-15T06:44:05.581Z,7.57
2023-05-15T06:46:32.749Z,8.23
2023-05-15T06:48:59.834Z,7.95
2023-05-15T06:51:26.873Z,8.45
2023-05-15T06:53:54.025Z,9.70
2023-05-15T06:56:21.901Z,9.18
2023-05-15T06:58:49.018Z,8.52
2023-05-15T07:01:16.201Z,8.00
2023-05-15T07:03:43.277Z,8.77
2023-05-15T07:06:10.331Z,8.02
2023-05-15T07:08:37.387Z,7.18
2023-05-15T07:11:04.654Z,7.47
2023-05-15T07:13:31.662Z,6.63
2023-05-15T07:15:58.703Z,6.22
2023-05-15T07:18:25.518Z,6.60
2023-05-15T07:20:52.275Z,6.38
2023-05-15T07:23:18.870Z,6.30
2023-05-15T07:25:46.187Z,6.95
2023-05-15T07:28:13.020Z,6.28
2023-05-15T07:30:39.623Z,6.47
2023-05-15T07:33:06.337Z,6.82
2023-05-15T07:35:33.192Z,6.80
2023-05-15T07:38:00.056Z,5.88
2023-05-15T07:40:26.929Z,7.22
2023-05-15T07:42:54.768Z,6.55
2023-05-15T07:45:21.841Z,6.13
2023-05-15T07:47:49.209Z,6.10
2023-05-15T07:50:16.560Z,6.05
2023-05-15T07:52:43.510Z,5.57
2023-05-15T07:55:10.995Z,5.90
2023-05-15T07:57:38.169Z,5.28
2023-05-15T08:00:10.156Z,5.50
2023-05-15T08:02:37.472Z,5.82
2023-05-15T08:05:05.360Z,5.10
2023-05-15T08:07:33.678Z,5.65
2023-05-15T08:10:00.730Z,5.47
2023-05-15T08:12:27.938Z,4.97
2023-05-15T08:14:55.617Z,4.88
2023-05-15T08:17:22.981Z,5.07
2023-05-15T08:19:50.197Z,5.55
2023-05-15T08:22:17.481Z,4.75
2023-05-15T08:24:45.350Z,5.78
2023-05-15T08:27:12.465Z,5.45
2023-05-15T08:29:40.227Z,5.32
2023-05-15T08:32:08.083Z,4.88
2023-05-15T08:34:35.211Z,4.53
2023-05-15T08:37:02.247Z,5.15
2023-05-15T08:39:29.265Z,4.78
2023-05-15T08:42:15.467Z,4.53
2023-05-15T08:44:43.053Z,4.82
2023-05-15T08:47:10.242Z,5.45
2023-05-15T08:49:45.984Z,6.05
2023-05-15T08:52:13.081Z,4.57
2023-05-15T08:54:41.101Z,5.35
2023-05-15T08:57:09.634Z,5.72
2023-05-15T08:59:38.330Z,4.72
2023-05-15T09:02:05.622Z,3.97
2023-05-15T09:04:32.973Z,5.03
2023-05-15T09:07:01.822Z,5.18
2023-05-15T09:09:29.434Z,5.10
2023-05-15T09:11:56.601Z,4.72
2023-05-15T09:14:23.639Z,4.60
2023-05-15T09:16:53.177Z,4.65
2023-05-15T09:19:23.780Z,4.10
2023-05-15T09:21:51.015Z,4.57
2023-05-15T09:24:19.257Z,4.00
2023-05-15T09:26:46.828Z,4.28
2023-05-15T09:29:18.323Z,4.82
2023-05-15T09:31:49.155Z,4.80
2023-05-15T09:34:16.270Z,4.07
2023-05-15T09:36:46.532Z,3.65
2023-05-15T09:39:13.590Z,4.20
2023-05-15T09:41:44.014Z,4.30
2023-05-15T09:44:21.475Z,4.30
2023-05-15T09:46:49.343Z,3.88
2023-05-15T09:49:16.425Z,4.80
2023-05-15T09:51:44.621Z,4.97
2023-05-15T09:54:20.703Z,4.85
2023-05-15T09:56:48.193Z,4.03
2023-05-15T09:59:16.101Z,3.80
2023-05-15T10:01:45.082Z,4.50
2023-05-15T10:04:12.892Z,4.18
2023-05-15T10:06:43.035Z,4.10
2023-05-15T10:09:11.404Z,4.53
2023-05-15T10:11:39.292Z,5.07
2023-05-15T10:14:06.942Z,4.07
2023-05-15T10:16:38.225Z,3.80
2023-05-15T10:19:09.032Z,3.90
2023-05-15T10:21:37.310Z,4.88
2023-05-15T10:24:04.955Z,5.22
2023-05-15T10:26:42.080Z,5.50
2023-05-15T10:29:18.302Z,4.95
2023-05-15T10:31:45.716Z,4.43
2023-05-15T10:34:13.275Z,5.00
2023-05-15T10:36:40.026Z,4.25
2023-05-15T10:39:07.977Z,4.63
2023-05-15T10:41:38.337Z,5.15
2023-05-15T10:44:05.675Z,5.00
2023-05-15T10:46:35.276Z,4.53
2023-05-15T10:49:02.364Z,5.82
2023-05-15T10:51:31.637Z,5.80
2023-05-15T10:54:01.298Z,5.30
2023-05-15T10:56:32.317Z,5.10
2023-05-15T10:59:05.967Z,4.90
2023-05-15T11:01:35.138Z,4.97
2023-05-15T11:04:10.410Z,5.05
2023-05-15T11:06:39.375Z,5.35
2023-05-15T11:09:27.373Z,5.28
2023-05-15T11:11:58.686Z,4.88
2023-05-15T11:14:26.352Z,3.35
2023-05-15T11:16:53.748Z,3.58
2023-05-15T11:19:25.152Z,3.70
2023-05-15T11:21:58.200Z,4.13
2023-05-15T11:24:31.889Z,4.10
2023-05-15T11:27:02.924Z,4.32
2023-05-15T11:29:30.094Z,3.90
2023-05-15T11:31:57.224Z,4.10
2023-05-15T11:34:34.101Z,3.80
2023-05-15T11:37:01.422Z,4.43
2023-05-15T11:39:29.042Z,4.07
2023-05-15T11:41:56.176Z,4.18
2023-05-15T11:44:23.725Z,4.05
2023-05-15T11:46:51.621Z,3.72
2023-05-15T11:49:20.003Z,5.03
2023-05-15T11:51:48.874Z,3.53
2023-05-15T11:54:16.208Z,4.53
2023-05-15T11:56:47.066Z,4.60
2023-05-15T11:59:17.609Z,4.95
2023-05-15T12:01:47.637Z,5.53
2023-05-15T12:04:15.911Z,5.22
2023-05-15T12:06:44.613Z,5.88
2023-05-15T12:09:16.693Z,5.53
2023-05-15T12:11:53.055Z,5.75
2023-05-15T12:14:27.559Z,4.72
2023-05-15T12:16:57.716Z,5.07
2023-05-15T12:19:28.776Z,4.70
2023-05-15T12:21:55.856Z,4.78
2023-05-15T12:24:22.931Z,5.05
2023-05-15T12:26:50.009Z,5.35
2023-05-15T12:29:17.330Z,4.85
2023-05-15T12:31:44.511Z,4.90
2023-05-15T12:34:11.715Z,2.97
2023-05-15T12:36:41.706Z,3.70
2023-05-15T12:39:09.068Z,3.65
2023-05-15T12:41:38.320Z,3.65
2023-05-15T12:44:06.196Z,3.17
2023-05-15T12:46:32.967Z,3.22
2023-05-15T12:49:00.132Z,3.70
2023-05-15T12:51:27.415Z,3.17
2023-05-15T12:53:54.666Z,3.33
2023-05-15T12:56:22.287Z,3.30
2023-05-15T12:58:50.009Z,3.78
2023-05-15T13:01:17.510Z,3.53
2023-05-15T13:03:45.194Z,3.42
2023-05-15T13:06:12.447Z,3.50
2023-05-15T13:08:42.889Z,3.28
2023-05-15T13:11:14.312Z,3.08
2023-05-15T13:13:45.995Z,3.92
2023-05-15T13:16:39.468Z,3.58
2023-05-15T13:19:07.229Z,4.05
2023-05-15T13:21:34.521Z,4.35
2023-05-15T13:24:01.691Z,4.20
2023-05-15T13:26:28.714Z,4.25
2023-05-15T13:28:55.784Z,3.90
2023-05-15T13:31:23.327Z,3.20
2023-05-15T13:33:50.489Z,3.13
2023-05-15T13:36:17.537Z,3.47
2023-05-15T13:38:44.585Z,3.85
2023-05-15T13:41:11.687Z,3.30
2023-05-15T13:43:38.700Z,3.22
2023-05-15T13:46:05.859Z,3.28
2023-05-15T13:48:32.896Z,3.08
2023-05-15T13:50:59.910Z,2.85
2023-05-15T13:53:27.107Z,2.60
2023-05-15T13:55:54.307Z,3.60
2023-05-15T13:58:21.512Z,2.67
2023-05-15T14:00:49.451Z,3.40
2023-05-15T14:03:16.563Z,3.20
2023-05-15T14:05:43.692Z,3.05
2023-05-15T14:08:11.075Z,3.13
2023-05-15T14:10:38.136Z,3.10
2023-05-15T14:13:05.266Z,3.38
2023-05-15T14:15:32.312Z,4.40
2023-05-15T14:17:59.526Z,4.50
2023-05-15T14:20:26.816Z,4.10
2023-05-15T14:22:54.128Z,3.67
2023-05-15T14:25:21.207Z,3.55
2023-05-15T14:27:48.315Z,2.78
2023-05-15T14:30:15.442Z,3.63
2023-05-15T14:32:42.630Z,3.55
2023-05-15T14:35:09.674Z,4.30
2023-05-15T14:37:37.593Z,4.15
2023-05-15T14:40:04.958Z,3.80
2023-05-15T14:42:32.229Z,4.45
2023-05-15T14:44:59.306Z,3.80
2023-05-15T14:47:28.224Z,4.00
2023-05-15T14:49:55.542Z,4.63
2023-05-15T14:52:22.693Z,3.70
2023-05-15T14:55:00.784Z,3.83
2023-05-15T14:57:35.644Z,3.60
2023-05-15T15:00:04.424Z,4.05
2023-05-15T15:02:31.554Z,4.30
2023-05-15T15:04:58.806Z,3.78
2023-05-15T15:07:32.605Z,3.80
2023-05-15T15:09:59.639Z,4.22
2023-05-15T15:12:27.552Z,4.13
2023-05-15T15:14:54.725Z,4.22
2023-05-15T15:17:21.788Z,4.15
2023-05-15T15:19:48.823Z,4.30
2023-05-15T15:22:15.994Z,3.65
2023-05-15T15:24:43.089Z,3.92
2023-05-15T15:27:10.214Z,3.92
2023-05-15T15:29:37.447Z,4.30
2023-05-15T15:32:04.641Z,4.20
2023-05-15T15:34:31.663Z,4.45
2023-05-15T15:36:58.715Z,4.00
2023-05-15T15:39:25.725Z,3.83
2023-05-15T15:41:52.826Z,3.67
2023-05-15T15:44:19.854Z,3.47
2023-05-15T15:46:46.906Z,4.07
2023-05-15T15:49:13.950Z,3.13
2023-05-15T15:51:43.865Z,3.47
2023-05-15T15:54:11.147Z,3.50
2023-05-15T15:56:38.214Z,3.83
2023-05-15T15:59:05.493Z,3.88
2023-05-15T16:01:33.310Z,3.83
2023-05-15T16:04:00.613Z,3.42
2023-05-15T16:06:27.733Z,3.88
2023-05-15T16:08:54.810Z,3.28
2023-05-15T16:11:22.164Z,3.00
2023-05-15T16:13:49.294Z,3.40
2023-05-15T16:16:16.477Z,3.00
2023-05-15T16:18:43.643Z,2.67
2023-05-15T16:21:10.700Z,2.67
2023-05-15T16:23:38.003Z,3.25
2023-05-15T16:26:05.575Z,3.47
2023-05-15T16:28:32.690Z,2.90
2023-05-15T16:30:59.764Z,2.97
2023-05-15T16:33:26.993Z,3.15
2023-05-15T16:35:54.095Z,2.47
2023-05-15T16:38:22.630Z,3.30
2023-05-15T16:40:50.242Z,2.83
2023-05-15T16:43:17.478Z,3.20
2023-05-15T16:45:44.681Z,3.63
2023-05-15T16:48:11.481Z,3.45
2023-05-15T16:50:38.225Z,2.55
2023-05-15T16:53:05.115Z,2.90
2023-05-15T16:55:32.702Z,3.17
2023-05-15T16:57:59.423Z,2.58
2023-05-15T17:00:26.518Z,2.75
2023-05-15T17:02:53.655Z,2.67
2023-05-15T17:05:20.620Z,2.70
2023-05-15T17:07:47.332Z,3.03
2023-05-15T17:10:14.328Z,2.60
2023-05-15T17:12:41.446Z,2.90
2023-05-15T17:15:09.064Z,3.03
2023-05-15T17:17:36.206Z,3.08
2023-05-15T17:20:03.939Z,2.65
2023-05-15T17:22:31.048Z,3.28
2023-05-15T17:24:57.860Z,3.00
2023-05-15T17:27:24.713Z,3.33
2023-05-15T17:29:51.689Z,3.45
2023-05-15T17:32:19.368Z,3.53
2023-05-15T17:34:46.806Z,2.67
2023-05-15T17:37:14.206Z,3.53
2023-05-15T17:39:41.423Z,2.60
2023-05-15T17:42:08.589Z,3.17
2023-05-15T17:44:35.616Z,3.17
2023-05-15T17:47:02.717Z,3.58
2023-05-15T17:49:30.864Z,2.60
2023-05-15T17:51:57.957Z,3.28
2023-05-15T17:54:25.024Z,3.15
2023-05-15T17:56:52.046Z,3.17
2023-05-15T17:59:19.169Z,3.10
2023-05-15T18:01:46.691Z,3.50
2023-05-15T18:04:13.451Z,3.63
2023-05-15T18:06:40.984Z,3.67
2023-05-15T18:09:07.754Z,3.70
2023-05-15T18:11:34.902Z,3.85
2023-05-15T18:14:02.211Z,4.15
2023-05-15T18:16:31.099Z,4.22
2023-05-15T18:19:00.641Z,4.97
2023-05-15T18:21:27.772Z,4.75
2023-05-15T18:23:54.779Z,4.97
2023-05-15T18:26:22.164Z,4.78
2023-05-15T18:28:49.506Z,4.50
2023-05-15T18:31:16.874Z,4.32
2023-05-15T18:33:44.904Z,4.13
2023-05-15T18:36:12.028Z,3.83
2023-05-15T18:38:39.150Z,4.35
2023-05-15T18:41:06.322Z,3.80
2023-05-15T18:43:33.442Z,4.60
2023-05-15T18:46:00.477Z,3.92
2023-05-15T18:48:27.564Z,4.35
2023-05-15T18:50:54.444Z,4.38
2023-05-15T18:53:21.488Z,5.28
2023-05-15T18:55:48.125Z,5.75
2023-05-15T18:58:14.774Z,5.80
2023-05-15T19:00:41.573Z,5.70
2023-05-15T19:03:08.745Z,5.32
2023-05-15T19:05:35.751Z,4.93
2023-05-15T19:08:02.990Z,5.68
2023-05-15T19:10:31.598Z,5.15
2023-05-15T19:12:59.085Z,6.68
2023-05-15T19:15:26.668Z,5.85
2023-05-15T19:17:53.763Z,5.25
2023-05-15T19:20:20.967Z,5.43
2023-05-15T19:22:47.623Z,5.28
2023-05-15T19:25:14.329Z,5.00
2023-05-15T19:27:41.204Z,5.63
2023-05-15T19:30:09.812Z,4.85
2023-05-15T19:32:37.376Z,5.13
2023-05-15T19:35:04.773Z,4.93
2023-05-15T19:37:31.802Z,3.70
2023-05-15T19:39:58.901Z,4.45
2023-05-15T19:42:26.324Z,4.80
2023-05-15T19:44:53.474Z,4.00
2023-05-15T19:47:20.754Z,4.10
2023-05-15T19:49:48.017Z,4.25
2023-05-15T19:52:15.982Z,4.63
2023-05-15T19:54:43.277Z,4.80
2023-05-15T19:57:10.303Z,4.57
2023-05-15T19:59:37.414Z,4.05
2023-05-15T20:02:05.717Z,3.92
2023-05-15T20:04:34.118Z,5.25
2023-05-15T20:07:01.356Z,4.82
2023-05-15T20:09:28.530Z,4.45
2023-05-15T20:11:55.834Z,4.45
2023-05-15T20:14:22.875Z,4.63
2023-05-15T20:16:49.922Z,4.38
2023-05-15T20:19:17.151Z,4.53
2023-05-15T20:21:44.290Z,4.55
2023-05-15T20:24:11.925Z,4.65
2023-05-15T20:26:39.183Z,4.40
2023-05-15T20:29:06.238Z,4.40
2023-05-15T20:31:33.542Z,4.55
2023-05-15T20:34:00.843Z,4.20
2023-05-15T20:36:28.138Z,4.70
2023-05-15T20:38:55.758Z,4.75
2023-05-15T20:41:23.281Z,5.47
2023-05-15T20:43:50.494Z,5.25
2023-05-15T20:46:17.750Z,4.25
2023-05-15T20:48:45.047Z,4.93
2023-05-15T20:51:12.087Z,4.53
2023-05-15T20:53:39.167Z,4.63
2023-05-15T20:56:06.245Z,4.57
2023-05-15T20:58:33.371Z,4.68
2023-05-15T21:01:01.061Z,4.13
2023-05-15T21:03:29.386Z,5.07
2023-05-15T21:05:57.573Z,3.67
2023-05-15T21:08:24.927Z,4.30
2023-05-15T21:10:55.265Z,4.18
2023-05-15T21:13:22.339Z,4.03
2023-05-15T21:15:49.380Z,4.40
2023-05-15T21:18:16.708Z,4.40
2023-05-15T21:20:43.749Z,4.25
2023-05-15T21:23:10.869Z,4.35
2023-05-15T21:25:38.326Z,4.43
2023-05-15T21:28:05.460Z,4.03
2023-05-15T21:30:32.520Z,3.63
2023-05-15T21:32:59.578Z,4.13
2023-05-15T21:35:28.811Z,4.05
2023-05-15T21:37:55.974Z,3.85
2023-05-15T21:40:23.080Z,4.15
2023-05-15T21:42:50.136Z,4.78
2023-05-15T21:45:17.353Z,3.83
2023-05-15T21:47:44.457Z,3.63
2023-05-15T21:50:11.652Z,4.05
2023-05-15T21:52:38.754Z,4.35
2023-05-15T21:55:06.146Z,4.45
2023-05-15T21:57:33.475Z,4.45
2023-05-15T22:00:00.675Z,4.30
2023-05-15T22:02:27.734Z,4.25
2023-05-15T22:04:54.793Z,4.13
2023-05-15T22:07:21.873Z,3.63
2023-05-15T22:09:49.002Z,4.28
2023-05-15T22:12:16.002Z,3.92
2023-05-15T22:14:58.499Z,3.92
2023-05-15T22:17:30.535Z,3.33
2023-05-15T22:20:02.651Z,4.20
2023-05-15T22:22:29.739Z,4.43
2023-05-15T22:24:56.752Z,4.18
2023-05-15T22:27:23.804Z,3.63
2023-05-15T22:29:50.835Z,4.20
2023-05-15T22:32:17.879Z,4.30
2023-05-15T22:34:44.898Z,4.15
2023-05-15T22:37:12.961Z,4.57
2023-05-15T22:39:40.071Z,4.70
2023-05-15T22:42:07.369Z,5.00
2023-05-15T22:44:34.573Z,4.88
2023-05-15T22:47:01.591Z,4.53
2023-05-15T22:49:28.655Z,4.75
2023-05-15T22:51:56.743Z,4.60
2023-05-15T22:54:42.461Z,4.10
2023-05-15T22:57:09.499Z,3.95
2023-05-15T22:59:37.067Z,4.10
2023-05-15T23:02:04.204Z,4.15
2023-05-15T23:04:31.231Z,4.63
2023-05-15T23:06:58.245Z,4.18
2023-05-15T23:09:25.521Z,4.60
2023-05-15T23:11:52.639Z,4.38
2023-05-15T23:14:21.680Z,4.20
2023-05-15T23:16:49.850Z,4.13
2023-05-15T23:19:16.919Z,4.10
2023-05-15T23:21:43.937Z,4.00
2023-05-15T23:24:10.982Z,4.20
2023-05-15T23:26:38.101Z,4.50
2023-05-15T23:29:05.217Z,3.70
2023-05-15T23:31:33.811Z,4.22
2023-05-15T23:34:01.003Z,4.15
2023-05-15T23:36:28.021Z,3.70
2023-05-15T23:38:55.076Z,4.32
2023-05-15T23:41:22.734Z,4.47
2023-05-15T23:43:50.462Z,4.57
2023-05-15T23:46:18.196Z,4.13
2023-05-15T23:48:45.524Z,4.28
2023-05-15T23:51:12.577Z,4.65
2023-05-15T23:53:39.672Z,4.82
2023-05-15T23:56:07.098Z,3.65
2023-05-15T23:58:34.351Z,4.43
